createdAt,value
2022-12-23T00:00:57.320Z,9.26
2022-12-23T00:01:57.457Z,9.22
2022-12-23T00:02:57.669Z,9.20
2022-12-23T00:03:57.623Z,9.20
2022-12-23T00:04:57.639Z,9.22
2022-12-23T00:05:57.708Z,9.23
2022-12-23T00:06:57.775Z,9.20
2022-12-23T00:07:57.863Z,9.23
2022-12-23T00:08:57.957Z,9.22
2022-12-23T00:09:58.032Z,9.24
2022-12-23T00:10:58.109Z,9.26
2022-12-23T00:11:58.190Z,9.27
2022-12-23T00:12:58.268Z,9.24
2022-12-23T00:13:58.343Z,9.23
2022-12-23T00:14:58.470Z,9.16
2022-12-23T00:15:58.539Z,9.12
2022-12-23T00:16:58.740Z,9.06
2022-12-23T00:17:58.652Z,9.08
2022-12-23T00:18:58.750Z,9.04
2022-12-23T00:19:58.834Z,9.08
2022-12-23T00:21:03.311Z,9.08
2022-12-23T00:21:58.995Z,9.08
2022-12-23T00:22:59.064Z,9.15
2022-12-23T00:23:59.127Z,9.16
2022-12-23T00:24:59.219Z,9.16
2022-12-23T00:25:59.275Z,9.17
2022-12-23T00:26:59.372Z,9.19
2022-12-23T00:27:59.447Z,9.17
2022-12-23T00:28:59.557Z,9.19
2022-12-23T00:29:59.631Z,9.16
2022-12-23T00:30:59.675Z,9.16
2022-12-23T00:31:59.923Z,9.19
2022-12-23T00:32:59.824Z,9.19
2022-12-23T00:33:59.902Z,9.20
2022-12-23T00:35:00.047Z,9.20
2022-12-23T00:36:00.128Z,9.22
2022-12-23T00:37:00.126Z,9.23
2022-12-23T00:38:00.190Z,9.24
2022-12-23T00:39:00.287Z,9.23
2022-12-23T00:40:06.092Z,9.22
2022-12-23T00:41:00.462Z,9.23
2022-12-23T00:42:00.517Z,9.22
2022-12-23T00:43:00.639Z,9.23
2022-12-23T00:44:00.685Z,9.24
2022-12-23T00:45:00.792Z,9.26
2022-12-23T00:46:00.944Z,9.26
2022-12-23T00:47:00.942Z,9.24
2022-12-23T00:48:01.024Z,9.23
2022-12-23T00:49:01.112Z,9.22
2022-12-23T00:50:01.195Z,9.22
2022-12-23T00:51:01.312Z,9.23
2022-12-23T00:52:01.356Z,9.22
2022-12-23T00:53:01.445Z,9.23
2022-12-23T00:54:01.527Z,9.23
2022-12-23T00:55:01.640Z,9.24
2022-12-23T00:56:01.679Z,9.22
2022-12-23T00:57:01.813Z,9.24
2022-12-23T00:58:01.833Z,9.24
2022-12-23T00:59:01.917Z,9.24
2022-12-23T01:00:02.012Z,9.20
2022-12-23T01:01:02.154Z,9.19
2022-12-23T01:02:02.470Z,9.19
2022-12-23T01:03:02.383Z,9.17
2022-12-23T01:04:02.293Z,9.19
2022-12-23T01:05:02.389Z,9.19
2022-12-23T01:06:02.458Z,9.19
2022-12-23T01:07:02.572Z,9.22
2022-12-23T01:08:02.626Z,9.22
2022-12-23T01:09:02.721Z,9.23
2022-12-23T01:10:02.806Z,9.27
2022-12-23T01:11:02.867Z,9.27
2022-12-23T01:12:02.943Z,9.31
2022-12-23T01:13:03.019Z,9.30
2022-12-23T01:14:03.091Z,9.32
2022-12-23T01:15:03.240Z,9.32
2022-12-23T01:16:03.249Z,9.34
2022-12-23T01:17:03.461Z,9.32
2022-12-23T01:18:03.374Z,9.34
2022-12-23T01:19:03.476Z,9.34
2022-12-23T01:20:03.561Z,9.38
2022-12-23T01:21:03.636Z,9.38
2022-12-23T01:22:03.711Z,9.40
2022-12-23T01:23:03.812Z,9.40
2022-12-23T01:24:03.899Z,9.41
2022-12-23T01:25:03.986Z,9.38
2022-12-23T01:26:04.040Z,9.38
2022-12-23T01:27:04.127Z,9.38
2022-12-23T01:28:04.196Z,9.38
2022-12-23T01:29:04.295Z,9.40
2022-12-23T01:30:04.408Z,9.38
2022-12-23T01:31:04.505Z,9.41
2022-12-23T01:32:04.559Z,9.42
2022-12-23T01:33:04.614Z,9.44
2022-12-23T01:34:04.705Z,9.44
2022-12-23T01:35:04.772Z,9.42
2022-12-23T01:36:04.847Z,9.42
2022-12-23T01:37:04.940Z,9.44
2022-12-23T01:38:05.022Z,9.44
2022-12-23T01:39:05.105Z,9.44
2022-12-23T01:40:05.189Z,9.45
2022-12-23T01:41:05.268Z,9.49
2022-12-23T01:42:05.343Z,9.48
2022-12-23T01:43:05.408Z,9.49
2022-12-23T01:44:05.524Z,9.50
2022-12-23T01:45:05.576Z,9.50
2022-12-23T01:46:05.681Z,9.53
2022-12-23T01:47:05.733Z,9.53
2022-12-23T01:48:05.793Z,9.55
2022-12-23T01:49:05.891Z,9.53
2022-12-23T01:50:05.988Z,9.55
2022-12-23T01:51:06.053Z,9.55
2022-12-23T01:52:06.131Z,9.53
2022-12-23T01:53:08.186Z,9.53
2022-12-23T01:54:06.272Z,9.56
2022-12-23T01:55:06.383Z,9.56
2022-12-23T01:56:06.455Z,9.55
2022-12-23T01:57:06.544Z,9.55
2022-12-23T01:58:06.633Z,9.58
2022-12-23T01:59:06.688Z,9.56
2022-12-23T02:00:06.782Z,9.59
2022-12-23T02:01:06.903Z,9.60
2022-12-23T02:02:07.107Z,9.62
2022-12-23T02:03:07.082Z,9.63
2022-12-23T02:04:07.069Z,9.63
2022-12-23T02:05:07.185Z,9.65
2022-12-23T02:06:07.231Z,9.65
2022-12-23T02:07:07.330Z,9.65
2022-12-23T02:08:07.411Z,9.67
2022-12-23T02:09:07.500Z,9.68
2022-12-23T02:10:07.581Z,9.68
2022-12-23T02:11:07.819Z,9.71
2022-12-23T02:12:07.718Z,9.68
2022-12-23T02:13:07.805Z,9.68
2022-12-23T02:14:07.871Z,9.70
2022-12-23T02:15:07.969Z,9.70
2022-12-23T02:16:08.022Z,9.71
2022-12-23T02:17:08.197Z,9.74
2022-12-23T02:18:08.177Z,9.74
2022-12-23T02:19:08.277Z,9.74
2022-12-23T02:20:08.360Z,9.74
2022-12-23T02:21:08.427Z,9.77
2022-12-23T02:22:08.515Z,9.77
2022-12-23T02:23:08.602Z,9.78
2022-12-23T02:24:08.662Z,9.78
2022-12-23T02:25:08.759Z,9.78
2022-12-23T02:26:08.828Z,9.77
2022-12-23T02:27:08.924Z,9.77
2022-12-23T02:28:08.994Z,9.78
2022-12-23T02:29:09.087Z,9.77
2022-12-23T02:30:09.188Z,9.78
2022-12-23T02:31:09.330Z,9.78
2022-12-23T02:32:09.328Z,9.78
2022-12-23T02:33:09.399Z,9.80
2022-12-23T02:34:09.472Z,9.77
2022-12-23T02:35:09.579Z,9.78
2022-12-23T02:36:09.649Z,9.78
2022-12-23T02:37:09.719Z,9.77
2022-12-23T02:38:09.787Z,9.77
2022-12-23T02:39:09.875Z,9.77
2022-12-23T02:40:10.187Z,9.77
2022-12-23T02:41:10.013Z,9.77
2022-12-23T02:42:10.088Z,9.77
2022-12-23T02:43:10.180Z,9.75
2022-12-23T02:44:10.285Z,9.77
2022-12-23T02:45:10.342Z,9.78
2022-12-23T02:46:10.514Z,9.75
2022-12-23T02:47:10.493Z,9.78
2022-12-23T02:48:10.556Z,9.78
2022-12-23T02:49:10.653Z,9.81
2022-12-23T02:50:10.741Z,9.81
2022-12-23T02:51:10.822Z,9.80
2022-12-23T02:52:10.895Z,9.81
2022-12-23T02:53:10.987Z,9.81
2022-12-23T02:54:11.066Z,9.83
2022-12-23T02:55:11.162Z,9.85
2022-12-23T02:56:11.237Z,9.85
2022-12-23T02:57:11.319Z,9.81
2022-12-23T02:58:11.387Z,9.85
2022-12-23T02:59:11.484Z,9.85
2022-12-23T03:00:11.574Z,9.86
2022-12-23T03:01:11.742Z,9.88
2022-12-23T03:02:11.876Z,9.86
2022-12-23T03:03:11.948Z,9.86
2022-12-23T03:04:11.860Z,9.89
2022-12-23T03:05:11.969Z,9.89
2022-12-23T03:06:12.038Z,9.89
2022-12-23T03:07:16.745Z,9.91
2022-12-23T03:08:12.210Z,9.92
2022-12-23T03:09:12.272Z,9.92
2022-12-23T03:10:12.374Z,9.92
2022-12-23T03:11:12.432Z,9.91
2022-12-23T03:12:12.509Z,9.92
2022-12-23T03:13:12.586Z,9.92
2022-12-23T03:14:12.665Z,9.92
2022-12-23T03:15:12.792Z,9.92
2022-12-23T03:16:12.868Z,9.95
2022-12-23T03:17:12.921Z,9.95
2022-12-23T03:18:12.984Z,9.96
2022-12-23T03:19:13.084Z,9.96
2022-12-23T03:20:13.278Z,9.98
2022-12-23T03:21:13.264Z,9.98
2022-12-23T03:22:13.329Z,9.96
2022-12-23T03:23:13.408Z,9.99
2022-12-23T03:24:13.473Z,9.98
2022-12-23T03:25:13.587Z,10.01
2022-12-23T03:26:13.667Z,9.99
2022-12-23T03:27:13.736Z,10.01
2022-12-23T03:28:13.822Z,10.01
2022-12-23T03:29:13.935Z,9.99
2022-12-23T03:30:14.036Z,9.98
2022-12-23T03:31:14.244Z,10.02
2022-12-23T03:32:14.183Z,9.99
2022-12-23T03:33:14.238Z,10.01
2022-12-23T03:34:14.318Z,9.99
2022-12-23T03:35:14.409Z,9.99
2022-12-23T03:36:14.444Z,10.01
2022-12-23T03:37:14.546Z,9.99
2022-12-23T03:38:14.609Z,10.04
2022-12-23T03:39:14.700Z,10.02
2022-12-23T03:40:14.784Z,10.04
2022-12-23T03:41:14.844Z,10.04
2022-12-23T03:42:14.924Z,10.06
2022-12-23T03:43:14.991Z,10.07
2022-12-23T03:44:15.063Z,10.09
2022-12-23T03:46:15.232Z,10.07
2022-12-23T03:47:15.284Z,10.04
2022-12-23T03:48:15.358Z,10.09
2022-12-23T03:49:15.464Z,10.07
2022-12-23T03:50:15.559Z,10.07
2022-12-23T03:51:15.639Z,10.09
2022-12-23T03:52:21.110Z,10.09
2022-12-23T03:53:15.822Z,10.07
2022-12-23T03:54:15.902Z,10.07
2022-12-23T03:55:15.984Z,10.06
2022-12-23T03:56:16.023Z,10.09
2022-12-23T03:57:16.121Z,10.09
2022-12-23T03:58:16.207Z,10.09
2022-12-23T03:59:16.277Z,10.06
2022-12-23T04:00:16.357Z,10.04
2022-12-23T04:01:17.918Z,10.04
2022-12-23T04:02:16.710Z,10.04
2022-12-23T04:03:16.558Z,10.02
2022-12-23T04:04:16.711Z,9.99
2022-12-23T04:05:16.732Z,10.02
2022-12-23T04:06:16.819Z,10.02
2022-12-23T04:07:16.897Z,10.02
2022-12-23T04:08:16.967Z,10.01
2022-12-23T04:09:21.906Z,9.99
2022-12-23T04:10:17.173Z,9.98
2022-12-23T04:11:17.208Z,10.01
2022-12-23T04:12:17.304Z,9.99
2022-12-23T04:13:17.383Z,10.01
2022-12-23T04:14:17.481Z,10.01
2022-12-23T04:15:17.594Z,9.98
2022-12-23T04:16:17.734Z,10.01
2022-12-23T04:17:17.738Z,9.99
2022-12-23T04:18:17.833Z,9.98
2022-12-23T04:19:17.904Z,9.96
2022-12-23T04:20:18.004Z,9.96
2022-12-23T04:21:18.071Z,9.99
2022-12-23T04:22:18.163Z,9.99
2022-12-23T04:23:18.242Z,10.01
2022-12-23T04:24:18.307Z,10.01
2022-12-23T04:25:18.413Z,10.02
2022-12-23T04:26:18.480Z,10.01
2022-12-23T04:27:18.568Z,10.02
2022-12-23T04:28:18.659Z,10.01
2022-12-23T04:29:18.742Z,10.02
2022-12-23T04:30:18.881Z,9.98
2022-12-23T04:31:18.975Z,10.01
2022-12-23T04:32:18.985Z,9.98
2022-12-23T04:33:19.048Z,9.96
2022-12-23T04:34:19.143Z,9.95
2022-12-23T04:35:19.231Z,9.99
2022-12-23T04:36:19.296Z,9.98
2022-12-23T04:37:19.368Z,9.96
2022-12-23T04:38:19.465Z,9.99
2022-12-23T04:39:19.540Z,9.98
2022-12-23T04:40:19.670Z,9.99
2022-12-23T04:41:19.706Z,9.96
2022-12-23T04:42:19.798Z,9.98
2022-12-23T04:43:19.866Z,9.98
2022-12-23T04:44:19.954Z,9.96
2022-12-23T04:45:20.073Z,9.95
2022-12-23T04:46:20.166Z,9.92
2022-12-23T04:47:20.216Z,9.93
2022-12-23T04:48:20.283Z,9.96
2022-12-23T04:49:20.359Z,9.93
2022-12-23T04:50:20.441Z,9.96
2022-12-23T04:51:20.512Z,9.95
2022-12-23T04:52:20.590Z,9.95
2022-12-23T04:53:20.678Z,9.96
2022-12-23T04:54:20.745Z,9.93
2022-12-23T04:55:20.859Z,9.95
2022-12-23T04:56:20.928Z,9.92
2022-12-23T04:57:21.025Z,9.92
2022-12-23T04:58:21.097Z,9.93
2022-12-23T04:59:21.194Z,9.92
2022-12-23T05:00:21.268Z,9.91
2022-12-23T05:01:21.418Z,9.91
2022-12-23T05:02:21.555Z,9.91
2022-12-23T05:03:21.675Z,9.92
2022-12-23T05:04:21.572Z,9.92
2022-12-23T05:05:21.683Z,9.88
2022-12-23T05:06:21.748Z,9.89
2022-12-23T05:07:21.850Z,9.85
2022-12-23T05:08:21.913Z,9.85
2022-12-23T05:09:22.020Z,9.85
2022-12-23T05:10:22.096Z,9.83
2022-12-23T05:11:22.176Z,9.85
2022-12-23T05:12:22.239Z,9.80
2022-12-23T05:13:22.353Z,9.81
2022-12-23T05:14:22.405Z,9.80
2022-12-23T05:15:22.516Z,9.77
2022-12-23T05:16:22.618Z,9.77
2022-12-23T05:17:22.652Z,9.77
2022-12-23T05:18:22.724Z,9.74
2022-12-23T05:19:22.815Z,9.73
2022-12-23T05:20:22.898Z,9.74
2022-12-23T05:21:22.967Z,9.71
2022-12-23T05:22:23.038Z,9.70
2022-12-23T05:23:23.147Z,9.70
2022-12-23T05:24:23.216Z,9.68
2022-12-23T05:25:23.299Z,9.70
2022-12-23T05:26:23.357Z,9.70
2022-12-23T05:27:23.453Z,9.70
2022-12-23T05:28:23.554Z,9.70
2022-12-23T05:29:23.603Z,9.70
2022-12-23T05:30:23.701Z,9.71
2022-12-23T05:31:23.843Z,9.70
2022-12-23T05:32:23.842Z,9.70
2022-12-23T05:33:24.020Z,9.68
2022-12-23T05:34:24.026Z,9.67
2022-12-23T05:35:24.097Z,9.68
2022-12-23T05:36:24.160Z,9.68
2022-12-23T05:37:24.252Z,9.67
2022-12-23T05:38:24.321Z,9.67
2022-12-23T05:39:24.417Z,9.70
2022-12-23T05:40:27.836Z,9.68
2022-12-23T05:41:24.570Z,9.70
2022-12-23T05:42:24.644Z,9.70
2022-12-23T05:43:24.743Z,9.71
2022-12-23T05:44:24.814Z,9.71
2022-12-23T05:45:24.925Z,9.71
2022-12-23T05:46:27.128Z,9.70
2022-12-23T05:47:25.074Z,9.71
2022-12-23T05:48:25.115Z,9.71
2022-12-23T05:49:25.229Z,9.73
2022-12-23T05:50:25.286Z,9.74
2022-12-23T05:51:25.375Z,9.73
2022-12-23T05:52:25.419Z,9.74
2022-12-23T05:53:25.515Z,9.74
2022-12-23T05:54:25.593Z,9.74
2022-12-23T05:55:25.691Z,9.75
2022-12-23T05:56:25.755Z,9.74
2022-12-23T05:57:25.854Z,9.74
2022-12-23T05:58:25.943Z,9.77
2022-12-23T05:59:30.709Z,9.78
2022-12-23T06:00:26.097Z,9.77
2022-12-23T06:01:26.277Z,9.77
2022-12-23T06:02:26.396Z,9.78
2022-12-23T06:03:26.533Z,9.80
2022-12-23T06:04:26.518Z,9.80
2022-12-23T06:05:26.500Z,9.78
2022-12-23T06:06:26.572Z,9.80
2022-12-23T06:07:26.687Z,9.80
2022-12-23T06:08:26.721Z,9.77
2022-12-23T06:09:26.817Z,9.78
2022-12-23T06:10:26.897Z,9.80
2022-12-23T06:11:26.991Z,9.80
2022-12-23T06:12:27.066Z,9.78
2022-12-23T06:13:27.148Z,9.78
2022-12-23T06:14:29.284Z,9.75
2022-12-23T06:15:27.330Z,9.75
2022-12-23T06:16:27.416Z,9.75
2022-12-23T06:17:27.461Z,9.77
2022-12-23T06:18:27.534Z,9.80
2022-12-23T06:19:27.631Z,9.77
2022-12-23T06:20:27.955Z,9.75
2022-12-23T06:21:27.761Z,9.74
2022-12-23T06:22:28.175Z,9.74
2022-12-23T06:23:27.925Z,9.74
2022-12-23T06:24:27.991Z,9.73
2022-12-23T06:25:28.107Z,9.70
2022-12-23T06:26:28.154Z,9.73
2022-12-23T06:27:28.241Z,9.73
2022-12-23T06:28:28.310Z,9.73
2022-12-23T06:29:28.406Z,9.70
2022-12-23T06:30:28.479Z,9.71
2022-12-23T06:31:28.579Z,9.71
2022-12-23T06:32:31.648Z,9.70
2022-12-23T06:33:28.727Z,9.71
2022-12-23T06:34:28.776Z,9.70
2022-12-23T06:35:28.888Z,9.70
2022-12-23T06:36:28.929Z,9.70
2022-12-23T06:37:29.035Z,9.71
2022-12-23T06:38:29.110Z,9.71
2022-12-23T06:39:29.199Z,9.68
2022-12-23T06:40:29.449Z,9.70
2022-12-23T06:41:29.365Z,9.71
2022-12-23T06:42:29.443Z,9.71
2022-12-23T06:43:29.559Z,9.70
2022-12-23T06:44:29.609Z,9.70
2022-12-23T06:45:29.754Z,9.71
2022-12-23T06:46:29.997Z,9.73
2022-12-23T06:47:29.888Z,9.71
2022-12-23T06:48:29.965Z,9.70
2022-12-23T06:49:30.049Z,9.68
2022-12-23T06:50:30.120Z,9.68
2022-12-23T06:51:30.193Z,9.65
2022-12-23T06:52:30.257Z,9.59
2022-12-23T06:53:30.342Z,9.56
2022-12-23T06:54:30.415Z,9.50
2022-12-23T06:55:30.523Z,9.49
2022-12-23T06:56:30.598Z,9.49
2022-12-23T06:57:30.674Z,9.49
2022-12-23T06:58:30.748Z,9.45
2022-12-23T06:59:30.837Z,9.41
2022-12-23T07:00:30.946Z,9.41
2022-12-23T07:01:31.136Z,9.40
2022-12-23T07:02:31.144Z,9.40
2022-12-23T07:03:31.208Z,9.41
2022-12-23T07:04:31.190Z,9.42
2022-12-23T07:05:37.000Z,9.40
2022-12-23T07:06:31.352Z,9.42
2022-12-23T07:07:31.424Z,9.42
2022-12-23T07:08:31.508Z,9.41
2022-12-23T07:09:31.575Z,9.44
2022-12-23T07:10:31.657Z,9.48
2022-12-23T07:11:31.724Z,9.48
2022-12-23T07:12:31.782Z,9.45
2022-12-23T07:13:31.882Z,9.41
2022-12-23T07:14:31.952Z,9.41
2022-12-23T07:15:32.081Z,9.41
2022-12-23T07:16:32.143Z,9.41
2022-12-23T07:17:32.171Z,9.40
2022-12-23T07:18:32.242Z,9.35
2022-12-23T07:19:32.341Z,9.34
2022-12-23T07:20:32.443Z,9.31
2022-12-23T07:21:32.525Z,9.30
2022-12-23T07:22:32.572Z,9.32
2022-12-23T07:23:32.671Z,9.31
2022-12-23T07:24:32.750Z,9.30
2022-12-23T07:25:32.830Z,9.31
2022-12-23T07:26:32.895Z,9.26
2022-12-23T07:27:32.975Z,9.27
2022-12-23T07:28:33.051Z,9.26
2022-12-23T07:29:33.136Z,9.24
2022-12-23T07:30:33.235Z,9.20
2022-12-23T07:31:33.352Z,9.12
2022-12-23T07:32:33.368Z,8.98
2022-12-23T07:33:33.457Z,8.91
2022-12-23T07:34:33.529Z,8.86
2022-12-23T07:35:33.634Z,8.82
2022-12-23T07:36:33.699Z,8.82
2022-12-23T07:37:33.812Z,8.83
2022-12-23T07:38:33.862Z,8.83
2022-12-23T07:39:33.985Z,8.85
2022-12-23T07:40:34.129Z,8.83
2022-12-23T07:41:34.127Z,8.86
2022-12-23T07:42:45.138Z,8.85
2022-12-23T07:43:34.286Z,8.86
2022-12-23T07:44:34.351Z,8.86
2022-12-23T07:45:34.505Z,8.86
2022-12-23T07:46:34.571Z,8.86
2022-12-23T07:47:34.629Z,8.86
2022-12-23T07:48:34.696Z,8.86
2022-12-23T07:49:34.793Z,8.86
2022-12-23T07:50:34.866Z,8.88
2022-12-23T07:51:34.927Z,8.86
2022-12-23T07:52:34.999Z,8.82
2022-12-23T07:53:35.096Z,8.80
2022-12-23T07:54:35.168Z,8.85
2022-12-23T07:55:35.290Z,8.83
2022-12-23T07:56:35.331Z,8.83
2022-12-23T07:57:35.422Z,8.85
2022-12-23T07:58:35.500Z,8.80
2022-12-23T07:59:35.572Z,8.78
2022-12-23T08:00:35.676Z,8.80
2022-12-23T08:01:35.898Z,8.78
2022-12-23T08:02:35.960Z,8.79
2022-12-23T08:03:35.900Z,8.79
2022-12-23T08:04:40.961Z,8.78
2022-12-23T08:05:36.072Z,8.79
2022-12-23T08:06:36.144Z,8.80
2022-12-23T08:07:36.241Z,8.79
2022-12-23T08:08:36.303Z,8.80
2022-12-23T08:09:36.427Z,8.80
2022-12-23T08:10:38.251Z,8.79
2022-12-23T08:11:36.545Z,8.78
2022-12-23T08:12:36.623Z,8.76
2022-12-23T08:13:36.744Z,8.78
2022-12-23T08:14:36.810Z,8.80
2022-12-23T08:15:36.886Z,8.83
2022-12-23T08:16:43.359Z,8.80
2022-12-23T08:17:37.071Z,8.82
2022-12-23T08:18:37.119Z,8.79
2022-12-23T08:19:37.195Z,8.82
2022-12-23T08:20:37.306Z,8.88
2022-12-23T08:21:37.383Z,8.89
2022-12-23T08:22:37.481Z,8.93
2022-12-23T08:23:37.544Z,8.94
2022-12-23T08:24:37.649Z,8.97
2022-12-23T08:25:37.735Z,8.98
2022-12-23T08:26:37.792Z,9.00
2022-12-23T08:27:37.875Z,9.03
2022-12-23T08:28:37.965Z,9.04
2022-12-23T08:29:38.027Z,9.08
2022-12-23T08:30:38.220Z,9.12
2022-12-23T08:31:38.196Z,9.13
2022-12-23T08:32:38.313Z,9.15
2022-12-23T08:33:38.375Z,9.13
2022-12-23T08:34:38.467Z,9.17
2022-12-23T08:35:38.554Z,9.17
2022-12-23T08:36:38.622Z,9.19
2022-12-23T08:37:38.699Z,9.19
2022-12-23T08:38:38.757Z,9.22
2022-12-23T08:39:38.852Z,9.23
2022-12-23T08:40:38.911Z,9.23
2022-12-23T08:41:38.961Z,9.24
2022-12-23T08:42:39.037Z,9.24
2022-12-23T08:43:39.106Z,9.26
2022-12-23T08:44:39.212Z,9.30
2022-12-23T08:45:39.300Z,9.30
2022-12-23T08:46:39.452Z,9.30
2022-12-23T08:47:39.443Z,9.27
2022-12-23T08:48:43.715Z,9.32
2022-12-23T08:49:39.604Z,9.32
2022-12-23T08:50:39.694Z,9.30
2022-12-23T08:51:39.764Z,9.32
2022-12-23T08:52:39.857Z,9.32
2022-12-23T08:53:39.918Z,9.32
2022-12-23T08:54:40.059Z,9.32
2022-12-23T08:55:40.117Z,9.37
2022-12-23T08:56:40.188Z,9.35
2022-12-23T08:57:40.254Z,9.38
2022-12-23T08:58:40.349Z,9.38
2022-12-23T08:59:40.417Z,9.41
2022-12-23T09:00:40.535Z,9.44
2022-12-23T09:01:40.720Z,9.48
2022-12-23T09:02:40.876Z,9.49
2022-12-23T09:03:40.796Z,9.50
2022-12-23T09:04:40.846Z,9.53
2022-12-23T09:05:40.939Z,9.52
2022-12-23T09:06:40.999Z,9.52
2022-12-23T09:07:41.073Z,9.52
2022-12-23T09:08:41.173Z,9.50
2022-12-23T09:09:41.241Z,9.50
2022-12-23T09:10:41.358Z,9.53
2022-12-23T09:11:41.421Z,9.45
2022-12-23T09:12:41.511Z,9.42
2022-12-23T09:13:41.580Z,9.42
2022-12-23T09:14:41.683Z,9.42
2022-12-23T09:15:41.802Z,9.42
2022-12-23T09:16:41.846Z,9.44
2022-12-23T09:17:41.913Z,9.42
2022-12-23T09:18:42.026Z,9.41
2022-12-23T09:19:45.839Z,9.40
2022-12-23T09:20:42.174Z,9.38
2022-12-23T09:21:42.212Z,9.40
2022-12-23T09:22:42.316Z,9.44
2022-12-23T09:23:42.380Z,9.44
2022-12-23T09:24:42.479Z,9.45
2022-12-23T09:25:42.568Z,9.45
2022-12-23T09:26:42.652Z,9.45
2022-12-23T09:27:42.726Z,9.45
2022-12-23T09:28:42.827Z,9.45
2022-12-23T09:29:42.893Z,9.48
2022-12-23T09:30:43.052Z,9.49
2022-12-23T09:31:43.152Z,9.49
2022-12-23T09:32:43.157Z,9.48
2022-12-23T09:33:43.237Z,9.50
2022-12-23T09:34:43.305Z,9.50
2022-12-23T09:35:43.373Z,9.52
2022-12-23T09:36:43.438Z,9.53
2022-12-23T09:37:43.502Z,9.55
2022-12-23T09:38:43.621Z,9.55
2022-12-23T09:39:43.658Z,9.56
2022-12-23T09:40:43.763Z,9.55
2022-12-23T09:41:43.825Z,9.56
2022-12-23T09:42:43.922Z,9.58
2022-12-23T09:43:43.985Z,9.60
2022-12-23T09:44:44.094Z,9.60
2022-12-23T09:45:44.157Z,9.62
2022-12-23T09:46:44.284Z,9.63
2022-12-23T09:47:44.290Z,9.63
2022-12-23T09:48:44.377Z,9.65
2022-12-23T09:49:44.452Z,9.65
2022-12-23T09:50:44.582Z,9.67
2022-12-23T09:51:44.627Z,9.70
2022-12-23T09:52:44.721Z,9.71
2022-12-23T09:53:44.787Z,9.74
2022-12-23T09:54:44.887Z,9.73
2022-12-23T09:55:44.984Z,9.74
2022-12-23T09:56:45.053Z,9.75
2022-12-23T09:57:45.132Z,9.77
2022-12-23T09:58:45.232Z,9.80
2022-12-23T09:59:45.298Z,9.80
2022-12-23T10:00:45.423Z,9.78
2022-12-23T10:01:45.642Z,9.77
2022-12-23T10:02:45.655Z,9.80
2022-12-23T10:03:45.839Z,9.78
2022-12-23T10:04:45.692Z,9.81
2022-12-23T10:05:45.763Z,9.80
2022-12-23T10:06:45.840Z,9.80
2022-12-23T10:07:45.895Z,9.81
2022-12-23T10:08:45.995Z,9.81
2022-12-23T10:09:46.068Z,9.83
2022-12-23T10:10:46.188Z,9.83
2022-12-23T10:11:46.223Z,9.85
2022-12-23T10:12:46.316Z,9.85
2022-12-23T10:13:46.384Z,9.83
2022-12-23T10:14:46.472Z,9.83
2022-12-23T10:15:46.604Z,9.83
2022-12-23T10:16:46.720Z,9.78
2022-12-23T10:17:46.748Z,9.78
2022-12-23T10:18:46.816Z,9.81
2022-12-23T10:19:46.924Z,9.80
2022-12-23T10:20:47.010Z,9.80
2022-12-23T10:21:47.946Z,9.75
2022-12-23T10:22:47.155Z,9.75
2022-12-23T10:23:47.228Z,9.73
2022-12-23T10:24:47.305Z,9.71
2022-12-23T10:25:47.395Z,9.73
2022-12-23T10:26:47.432Z,9.70
2022-12-23T10:27:47.515Z,9.63
2022-12-23T10:28:47.583Z,9.63
2022-12-23T10:29:47.673Z,9.63
2022-12-23T10:31:47.978Z,9.63
2022-12-23T10:32:48.011Z,9.65
2022-12-23T10:33:48.019Z,9.65
2022-12-23T10:34:48.091Z,9.63
2022-12-23T10:35:48.217Z,9.70
2022-12-23T10:36:48.321Z,9.68
2022-12-23T10:37:48.343Z,9.70
2022-12-23T10:38:48.416Z,9.73
2022-12-23T10:39:48.510Z,9.74
2022-12-23T10:40:48.603Z,9.77
2022-12-23T10:41:48.692Z,9.78
2022-12-23T10:42:48.758Z,9.80
2022-12-23T10:43:48.854Z,9.81
2022-12-23T10:44:48.927Z,9.81
2022-12-23T10:45:49.029Z,9.83
2022-12-23T10:46:49.113Z,9.80
2022-12-23T10:47:49.182Z,9.78
2022-12-23T10:48:49.269Z,9.75
2022-12-23T10:49:49.364Z,9.78
2022-12-23T10:50:49.460Z,9.77
2022-12-23T10:51:49.530Z,9.80
2022-12-23T10:52:49.586Z,9.75
2022-12-23T10:53:49.682Z,9.74
2022-12-23T10:54:49.761Z,9.75
2022-12-23T10:55:49.842Z,9.75
2022-12-23T10:56:49.910Z,9.77
2022-12-23T10:57:50.004Z,9.78
2022-12-23T10:58:50.076Z,9.81
2022-12-23T10:59:50.172Z,9.81
2022-12-23T11:00:50.462Z,9.85
2022-12-23T11:01:50.481Z,9.85
2022-12-23T11:02:50.658Z,9.81
2022-12-23T11:03:50.603Z,9.81
2022-12-23T11:04:50.598Z,9.80
2022-12-23T11:05:50.710Z,9.81
2022-12-23T11:07:05.019Z,9.83
2022-12-23T11:07:50.860Z,9.83
2022-12-23T11:08:50.949Z,9.81
2022-12-23T11:09:51.021Z,9.81
2022-12-23T11:10:51.117Z,9.83
2022-12-23T11:11:51.186Z,9.81
2022-12-23T11:12:51.272Z,9.83
2022-12-23T11:13:51.368Z,9.83
2022-12-23T11:14:51.444Z,9.83
2022-12-23T11:15:51.578Z,9.83
2022-12-23T11:16:51.660Z,9.81
2022-12-23T11:17:51.666Z,9.81
2022-12-23T11:18:51.749Z,9.81
2022-12-23T11:19:51.832Z,9.73
2022-12-23T11:20:51.917Z,9.67
2022-12-23T11:21:51.980Z,9.59
2022-12-23T11:22:52.074Z,9.59
2022-12-23T11:23:52.114Z,9.56
2022-12-23T11:24:52.191Z,9.56
2022-12-23T11:25:52.289Z,9.52
2022-12-23T11:26:52.404Z,9.52
2022-12-23T11:27:52.427Z,9.50
2022-12-23T11:28:52.515Z,9.50
2022-12-23T11:29:52.599Z,9.48
2022-12-23T11:30:56.316Z,9.44
2022-12-23T11:31:52.979Z,9.41
2022-12-23T11:32:52.852Z,9.40
2022-12-23T11:33:52.926Z,9.40
2022-12-23T11:34:53.007Z,9.37
2022-12-23T11:35:53.080Z,9.38
2022-12-23T11:36:56.517Z,9.40
2022-12-23T11:37:53.240Z,9.40
2022-12-23T11:38:53.311Z,9.38
2022-12-23T11:39:53.385Z,9.38
2022-12-23T11:40:53.471Z,9.34
2022-12-23T11:41:53.564Z,9.30
2022-12-23T11:42:55.430Z,9.31
2022-12-23T11:43:53.714Z,9.30
2022-12-23T11:44:53.798Z,9.30
2022-12-23T11:45:54.013Z,9.30
2022-12-23T11:46:53.946Z,9.31
2022-12-23T11:47:54.032Z,9.31
2022-12-23T11:48:54.969Z,9.34
2022-12-23T11:49:54.205Z,9.34
2022-12-23T11:50:54.297Z,9.32
2022-12-23T11:51:54.363Z,9.34
2022-12-23T11:52:54.413Z,9.34
2022-12-23T11:53:54.508Z,9.34
2022-12-23T11:54:54.916Z,9.34
2022-12-23T11:55:54.681Z,9.31
2022-12-23T11:56:54.822Z,9.34
2022-12-23T11:57:54.796Z,9.32
2022-12-23T11:58:54.875Z,9.32
2022-12-23T11:59:54.946Z,9.31
2022-12-23T12:00:56.120Z,9.27
2022-12-23T12:01:55.164Z,9.26
2022-12-23T12:02:55.336Z,9.27
2022-12-23T12:03:55.355Z,9.24
2022-12-23T12:04:55.327Z,9.22
2022-12-23T12:05:55.416Z,9.22
2022-12-23T12:06:56.786Z,9.22
2022-12-23T12:07:55.552Z,9.22
2022-12-23T12:08:55.621Z,9.19
2022-12-23T12:09:55.704Z,9.20
2022-12-23T12:10:55.801Z,9.19
2022-12-23T12:11:55.891Z,9.20
2022-12-23T12:12:55.967Z,9.20
2022-12-23T12:13:56.063Z,9.20
2022-12-23T12:14:56.135Z,9.22
2022-12-23T12:15:56.237Z,9.23
2022-12-23T12:16:56.372Z,9.20
2022-12-23T12:17:56.411Z,9.23
2022-12-23T12:18:56.469Z,9.23
2022-12-23T12:19:56.571Z,9.23
2022-12-23T12:21:02.529Z,9.23
2022-12-23T12:21:56.726Z,9.23
2022-12-23T12:22:56.797Z,9.24
2022-12-23T12:24:17.075Z,9.24
2022-12-23T12:24:56.959Z,9.26
2022-12-23T12:25:57.045Z,9.26
2022-12-23T12:26:57.129Z,9.26
2022-12-23T12:27:57.201Z,9.26
2022-12-23T12:28:57.280Z,9.22
2022-12-23T12:29:57.383Z,9.24
2022-12-23T12:30:57.533Z,9.24
2022-12-23T12:31:57.548Z,9.23
2022-12-23T12:32:57.623Z,9.23
2022-12-23T12:33:57.724Z,9.22
2022-12-23T12:34:57.769Z,9.22
2022-12-23T12:36:03.363Z,9.23
2022-12-23T12:36:57.969Z,9.22
2022-12-23T12:37:57.963Z,9.20
2022-12-23T12:38:58.041Z,9.20
2022-12-23T12:39:58.111Z,9.20
2022-12-23T12:40:58.183Z,9.22
2022-12-23T12:42:03.583Z,9.20
2022-12-23T12:42:58.336Z,9.19
2022-12-23T12:43:58.402Z,9.17
2022-12-23T12:44:58.494Z,9.17
2022-12-23T12:45:58.651Z,9.17
2022-12-23T12:46:58.691Z,9.15
2022-12-23T12:48:05.995Z,9.13
2022-12-23T12:48:58.845Z,9.16
2022-12-23T12:49:58.913Z,9.15
2022-12-23T12:50:58.995Z,9.13
2022-12-23T12:51:59.075Z,9.15
2022-12-23T12:52:59.138Z,9.16
2022-12-23T12:54:04.721Z,9.15
2022-12-23T12:54:59.314Z,9.19
2022-12-23T12:55:59.395Z,9.17
2022-12-23T12:56:59.516Z,9.17
2022-12-23T12:57:59.546Z,9.16
2022-12-23T12:58:59.659Z,9.17
2022-12-23T13:00:05.649Z,9.19
2022-12-23T13:00:59.818Z,9.23
2022-12-23T13:01:59.929Z,9.16
2022-12-23T13:03:00.003Z,9.16
2022-12-23T13:04:00.042Z,9.15
2022-12-23T13:05:00.140Z,9.15
2022-12-23T13:06:00.231Z,9.16
2022-12-23T13:07:00.297Z,9.17
2022-12-23T13:08:00.358Z,9.16
2022-12-23T13:09:00.437Z,9.15
2022-12-23T13:10:00.531Z,9.15
2022-12-23T13:11:00.593Z,9.17
2022-12-23T13:12:00.698Z,9.19
2022-12-23T13:13:00.780Z,9.19
2022-12-23T13:14:00.850Z,9.19
2022-12-23T13:15:00.928Z,9.23
2022-12-23T13:16:01.007Z,9.24
2022-12-23T13:17:01.258Z,9.24
2022-12-23T13:18:03.609Z,9.30
2022-12-23T13:19:01.273Z,9.26
2022-12-23T13:20:01.364Z,9.26